createdAt,value
2023-04-05T00:04:34.702Z,2.93
2023-04-05T00:09:36.597Z,2.95
2023-04-05T00:14:37.863Z,2.99
2023-04-05T00:19:39.368Z,3.09
2023-04-05T00:24:43.616Z,3.13
2023-04-05T00:29:45.003Z,3.19
2023-04-05T00:34:46.386Z,3.17
2023-04-05T00:39:47.661Z,3.16
2023-04-05T00:44:48.949Z,3.24
2023-04-05T00:49:50.323Z,3.31
2023-04-05T00:54:51.659Z,3.34
2023-04-05T00:59:52.881Z,3.32
2023-04-05T01:04:54.169Z,3.32
2023-04-05T01:09:55.565Z,3.29
2023-04-05T01:14:56.802Z,3.21
2023-04-05T01:20:01.141Z,3.16
2023-04-05T01:25:02.878Z,3.16
2023-04-05T01:30:04.377Z,3.16
2023-04-05T01:35:05.762Z,3.11
2023-04-05T01:40:07.084Z,3.02
2023-04-05T01:45:09.457Z,2.89
2023-04-05T01:50:10.767Z,2.73
2023-04-05T01:55:11.984Z,2.65
2023-04-05T02:00:13.408Z,2.50
2023-04-05T02:05:14.729Z,2.40
2023-04-05T02:10:16.229Z,2.31
2023-04-05T02:15:17.478Z,2.22
2023-04-05T02:20:18.739Z,2.28
2023-04-05T02:25:20.014Z,2.17
2023-04-05T02:30:21.640Z,2.00
2023-04-05T02:35:23.309Z,1.82
2023-04-05T02:40:25.310Z,1.72
2023-04-05T02:45:27.891Z,1.61
2023-04-05T02:50:29.345Z,1.52
2023-04-05T02:55:31.031Z,1.46
2023-04-05T03:00:32.586Z,1.38
2023-04-05T03:05:33.822Z,1.28
2023-04-05T03:10:36.314Z,1.22
2023-04-05T03:15:37.637Z,1.15
2023-04-05T03:20:40.180Z,1.08
2023-04-05T03:25:41.815Z,1.21
2023-04-05T03:30:43.246Z,1.08
2023-04-05T03:35:44.535Z,0.98
2023-04-05T03:40:46.074Z,0.89
2023-04-05T03:45:47.384Z,0.79
2023-04-05T03:50:48.699Z,0.79
2023-04-05T03:55:50.524Z,0.77
2023-04-05T04:00:52.846Z,0.70
2023-04-05T04:05:54.147Z,0.69
2023-04-05T04:10:55.692Z,0.63
2023-04-05T04:15:56.953Z,0.63
2023-04-05T04:20:58.640Z,0.81
2023-04-05T04:26:01.668Z,0.85
2023-04-05T04:31:05.024Z,0.76
2023-04-05T04:36:06.920Z,0.67
2023-04-05T04:41:14.556Z,0.61
2023-04-05T04:46:15.983Z,0.47
2023-04-05T04:51:17.312Z,0.37
2023-04-05T04:56:18.527Z,0.36
2023-04-05T05:01:19.748Z,0.32
2023-04-05T05:06:22.054Z,0.31
2023-04-05T05:11:23.303Z,0.30
2023-04-05T05:16:24.699Z,0.31
2023-04-05T05:21:26.731Z,0.32
2023-04-05T05:26:27.965Z,0.30
2023-04-05T05:31:29.361Z,0.36
2023-04-05T05:36:31.368Z,0.46
2023-04-05T05:41:32.574Z,0.53
2023-04-05T05:46:33.975Z,0.61
2023-04-05T05:51:36.414Z,0.62
2023-04-05T05:56:37.573Z,0.66
2023-04-05T06:01:42.406Z,0.73
2023-04-05T06:06:43.924Z,0.84
2023-04-05T06:11:55.757Z,0.97
2023-04-05T06:16:58.144Z,1.06
2023-04-05T06:22:00.758Z,1.19
2023-04-05T06:27:02.111Z,1.29
2023-04-05T06:32:03.493Z,1.35
2023-04-05T06:37:04.706Z,1.50
2023-04-05T06:42:06.118Z,1.69
2023-04-05T06:47:07.634Z,1.83
2023-04-05T06:52:08.886Z,2.03
2023-04-05T06:57:10.419Z,2.22
2023-04-05T07:02:12.207Z,2.39
2023-04-05T07:07:13.728Z,2.56
2023-04-05T07:12:15.401Z,2.70
2023-04-05T07:17:16.864Z,2.89
2023-04-05T07:22:18.268Z,3.02
2023-04-05T07:27:19.724Z,3.16
2023-04-05T07:32:21.296Z,3.31
2023-04-05T07:37:22.647Z,3.51
2023-04-05T07:42:24.122Z,3.69
2023-04-05T07:47:25.465Z,3.89
2023-04-05T07:52:26.620Z,4.03
2023-04-05T07:57:27.809Z,4.20
2023-04-05T08:02:29.034Z,4.48
2023-04-05T08:07:30.516Z,4.58
2023-04-05T08:12:35.724Z,4.85
2023-04-05T08:17:38.384Z,5.04
2023-04-05T08:22:39.531Z,5.17
2023-04-05T08:27:41.255Z,5.35
2023-04-05T08:32:42.586Z,5.51
2023-04-05T08:37:44.015Z,5.70
2023-04-05T08:42:45.280Z,5.95
2023-04-05T08:47:46.654Z,6.44
2023-04-05T08:52:49.897Z,6.86
2023-04-05T08:57:51.247Z,7.04
2023-04-05T09:02:52.530Z,7.38
2023-04-05T09:07:53.941Z,7.73
2023-04-05T09:12:55.148Z,8.22
2023-04-05T09:17:56.353Z,8.76
2023-04-05T09:22:57.586Z,9.23
2023-04-05T09:27:58.771Z,9.94
2023-04-05T09:33:00.036Z,10.29
2023-04-05T09:38:01.335Z,11.01
2023-04-05T09:43:02.543Z,11.45
2023-04-05T09:48:03.773Z,12.29
2023-04-05T09:53:05.024Z,12.05
2023-04-05T09:58:06.240Z,12.29
2023-04-05T10:03:07.617Z,13.59
2023-04-05T10:08:08.980Z,14.27
2023-04-05T10:13:10.540Z,14.44
2023-04-05T10:18:11.838Z,14.31
2023-04-05T10:23:13.239Z,14.10
2023-04-05T10:28:14.413Z,13.75
2023-04-05T10:33:15.650Z,13.81
2023-04-05T10:38:16.871Z,14.68
2023-04-05T10:43:18.116Z,15.90
2023-04-05T10:48:19.511Z,15.98
2023-04-05T10:53:20.931Z,16.51
2023-04-05T10:58:22.104Z,17.43
2023-04-05T11:03:23.404Z,18.10
2023-04-05T11:08:24.657Z,17.69
2023-04-05T11:13:25.886Z,16.93
2023-04-05T11:18:27.099Z,17.14
2023-04-05T11:23:28.369Z,17.33
2023-04-05T11:28:29.637Z,17.23
2023-04-05T11:33:30.857Z,17.35
2023-04-05T11:38:32.024Z,17.26
2023-04-05T11:43:35.123Z,16.99
2023-04-05T11:48:36.549Z,17.37
2023-04-05T11:53:37.746Z,17.11
2023-04-05T11:58:38.901Z,16.31
2023-04-05T12:03:40.164Z,14.66
2023-04-05T12:08:42.093Z,15.46
2023-04-05T12:13:43.338Z,16.20
2023-04-05T12:18:44.495Z,16.58
2023-04-05T12:23:45.664Z,15.35
2023-04-05T12:28:47.061Z,14.61
2023-04-05T12:33:48.290Z,14.73
2023-04-05T12:38:50.263Z,15.08
2023-04-05T12:43:53.717Z,14.56
2023-04-05T12:48:54.858Z,13.97
2023-04-05T12:53:56.138Z,14.40
2023-04-05T12:58:57.381Z,14.01
2023-04-05T13:04:08.506Z,13.54
2023-04-05T13:09:16.307Z,14.08
2023-04-05T13:14:17.966Z,14.25
2023-04-05T13:19:19.214Z,13.93
2023-04-05T13:24:20.370Z,14.75
2023-04-05T13:29:21.555Z,14.82
2023-04-05T13:34:22.749Z,15.03
2023-04-05T13:39:23.970Z,14.95
2023-04-05T13:44:25.417Z,14.82
2023-04-05T13:49:26.586Z,14.53
2023-04-05T13:54:27.807Z,14.51
2023-04-05T13:59:29.121Z,14.08
2023-04-05T14:04:30.467Z,13.25
2023-04-05T14:09:32.358Z,12.92
2023-04-05T14:14:33.572Z,13.38
2023-04-05T14:19:34.742Z,13.69
2023-04-05T14:24:36.019Z,13.51
2023-04-05T14:29:37.256Z,13.54
2023-04-05T14:34:38.463Z,13.41
2023-04-05T14:39:39.687Z,12.54
2023-04-05T14:44:40.891Z,12.59
2023-04-05T14:49:42.241Z,13.05
2023-04-05T14:54:44.666Z,13.08
2023-04-05T14:59:46.034Z,12.90
2023-04-05T15:04:47.233Z,12.73
2023-04-05T15:09:48.761Z,12.33
2023-04-05T15:14:50.800Z,12.59
2023-04-05T15:19:52.017Z,12.35
2023-04-05T15:24:53.198Z,11.93
2023-04-05T15:29:54.358Z,12.03
2023-04-05T15:34:55.741Z,12.34
2023-04-05T15:39:56.943Z,12.34
2023-04-05T15:44:58.074Z,12.00
2023-04-05T15:49:59.210Z,11.85
2023-04-05T15:55:00.639Z,12.03
2023-04-05T16:00:01.875Z,11.71
2023-04-05T16:05:03.087Z,11.43
2023-04-05T16:10:04.439Z,11.76
2023-04-05T16:15:05.865Z,11.69
2023-04-05T16:20:07.093Z,11.43
2023-04-05T16:25:08.268Z,11.32
2023-04-05T16:30:09.467Z,11.49
2023-04-05T16:35:10.893Z,11.54
2023-04-05T16:40:12.170Z,11.36
2023-04-05T16:45:13.617Z,11.20
2023-04-05T16:50:14.781Z,11.12
2023-04-05T16:55:15.993Z,11.00
2023-04-05T17:00:17.187Z,10.97
2023-04-05T17:05:18.468Z,10.97
2023-04-05T17:10:19.679Z,10.91
2023-04-05T17:15:21.086Z,10.76
2023-04-05T17:20:23.122Z,10.67
2023-04-05T17:25:24.320Z,10.52
2023-04-05T17:30:26.178Z,10.46
2023-04-05T17:35:27.346Z,10.35
2023-04-05T17:40:28.865Z,10.25
2023-04-05T17:45:30.123Z,10.11
2023-04-05T17:50:31.363Z,9.99
2023-04-05T17:55:33.441Z,9.87
2023-04-05T18:00:34.714Z,9.66
2023-04-05T18:05:36.217Z,9.45
2023-04-05T18:10:37.378Z,9.32
2023-04-05T18:15:38.622Z,9.08
2023-04-05T18:20:40.525Z,8.82
2023-04-05T18:25:42.242Z,8.58
2023-04-05T18:30:43.416Z,8.38
2023-04-05T18:35:44.651Z,8.26
2023-04-05T18:40:46.097Z,8.13
2023-04-05T18:45:47.398Z,7.98
2023-04-05T18:50:49.762Z,7.82
2023-04-05T18:55:51.239Z,7.70
2023-04-05T19:00:52.780Z,7.62
2023-04-05T19:05:53.988Z,7.51
2023-04-05T19:10:55.233Z,7.38
2023-04-05T19:15:56.473Z,7.32
2023-04-05T19:20:57.675Z,7.11
2023-04-05T19:25:59.038Z,7.04
2023-04-05T19:31:00.580Z,6.93
2023-04-05T19:36:02.037Z,6.84
2023-04-05T19:41:03.413Z,6.69
2023-04-05T19:46:04.708Z,6.62
2023-04-05T19:51:06.764Z,6.47
2023-04-05T19:56:08.148Z,6.42
2023-04-05T20:01:09.352Z,6.23
2023-04-05T20:06:10.616Z,6.07
2023-04-05T20:11:11.897Z,5.89
2023-04-05T20:16:13.208Z,5.81
2023-04-05T20:21:14.478Z,5.72
2023-04-05T20:26:15.743Z,5.64
2023-04-05T20:31:16.968Z,5.52
2023-04-05T20:36:18.194Z,5.38
2023-04-05T20:41:19.755Z,5.28
2023-04-05T20:46:21.015Z,5.18
2023-04-05T20:51:22.265Z,5.09
2023-04-05T20:56:23.424Z,4.94
2023-04-05T21:01:24.794Z,4.78
2023-04-05T21:06:26.340Z,4.68
2023-04-05T21:11:27.529Z,4.56
2023-04-05T21:16:28.859Z,4.48
2023-04-05T21:21:31.164Z,4.44
2023-04-05T21:26:32.401Z,4.37
2023-04-05T21:31:33.590Z,4.38
2023-04-05T21:36:34.815Z,4.52
2023-04-05T21:41:36.007Z,4.57
2023-04-05T21:46:37.328Z,4.51
2023-04-05T21:51:38.568Z,4.50
2023-04-05T21:56:40.500Z,4.48
2023-04-05T22:01:41.787Z,4.41
2023-04-05T22:06:43.000Z,4.41
2023-04-05T22:11:44.165Z,4.46
2023-04-05T22:16:45.410Z,4.43
2023-04-05T22:21:46.688Z,4.45
2023-04-05T22:26:48.870Z,4.26
2023-04-05T22:31:50.096Z,4.10
2023-04-05T22:36:51.313Z,3.88
2023-04-05T22:41:52.546Z,3.67
2023-04-05T22:46:53.746Z,3.37
2023-04-05T22:51:54.989Z,3.09
2023-04-05T22:56:56.540Z,2.99
2023-04-05T23:01:57.693Z,2.80
2023-04-05T23:06:58.916Z,2.84
2023-04-05T23:12:00.153Z,2.91
2023-04-05T23:17:01.382Z,2.93
2023-04-05T23:22:02.560Z,2.78
2023-04-05T23:27:03.780Z,2.69
2023-04-05T23:32:06.747Z,2.63
2023-04-05T23:37:07.989Z,2.61
2023-04-05T23:42:09.326Z,2.57
2023-04-05T23:47:10.525Z,2.55
2023-04-05T23:52:11.814Z,2.56
2023-04-05T23:57:12.982Z,2.55
